createdAt,value
2019-03-31T00:04:08.113Z,32.20
2019-03-31T00:09:15.059Z,31.10
2019-03-31T00:14:20.685Z,29.00
2019-03-31T00:19:26.241Z,32.63
2019-03-31T00:24:31.916Z,32.43
2019-03-31T00:29:38.016Z,31.53
2019-03-31T00:34:43.537Z,31.60
2019-03-31T00:39:49.179Z,32.63
2019-03-31T00:44:54.765Z,35.83
2019-03-31T00:50:00.586Z,33.57
2019-03-31T00:55:06.451Z,36.37
2019-03-31T01:00:13.851Z,37.57
2019-03-31T01:05:21.467Z,36.80
2019-03-31T01:10:27.127Z,35.57
2019-03-31T01:15:34.124Z,33.80
2019-03-31T01:20:40.127Z,34.77
2019-03-31T01:25:45.662Z,34.73
2019-03-31T01:30:51.775Z,31.20
2019-03-31T01:35:57.320Z,30.50
2019-03-31T01:41:02.862Z,37.77
2019-03-31T01:46:10.352Z,34.13
2019-03-31T01:51:15.910Z,35.13
2019-03-31T01:56:22.156Z,28.40
2019-03-31T02:01:27.657Z,28.00
2019-03-31T02:06:33.603Z,29.17
2019-03-31T02:11:39.192Z,31.97
2019-03-31T02:16:44.711Z,32.47
2019-03-31T02:21:50.726Z,32.47
2019-03-31T02:26:56.251Z,30.37
2019-03-31T02:32:01.613Z,31.33
2019-03-31T02:37:09.644Z,31.60
2019-03-31T02:42:15.284Z,42.93
2019-03-31T02:47:21.220Z,38.73
2019-03-31T02:52:27.492Z,39.40
2019-03-31T02:57:33.511Z,30.47
2019-03-31T03:02:42.011Z,31.77
2019-03-31T03:07:47.804Z,30.97
2019-03-31T03:12:53.784Z,36.23
2019-03-31T03:17:59.350Z,30.30
2019-03-31T03:23:04.990Z,30.67
2019-03-31T03:28:10.537Z,34.87
2019-03-31T03:33:18.207Z,28.20
2019-03-31T03:38:23.715Z,28.80
2019-03-31T03:43:29.240Z,29.10
2019-03-31T03:48:40.032Z,32.07
2019-03-31T03:53:45.764Z,35.77
2019-03-31T03:58:51.338Z,38.10
2019-03-31T04:03:56.946Z,30.33
2019-03-31T04:09:02.549Z,32.33
2019-03-31T04:14:08.188Z,34.33
2019-03-31T04:19:13.742Z,38.33
2019-03-31T04:24:19.307Z,32.40
2019-03-31T04:29:24.905Z,30.73
2019-03-31T04:34:30.373Z,31.27
2019-03-31T04:39:36.097Z,31.27
2019-03-31T04:44:44.228Z,35.93
2019-03-31T04:49:50.484Z,33.93
2019-03-31T04:55:06.981Z,35.23
2019-03-31T05:00:12.705Z,32.57
2019-03-31T05:05:18.463Z,31.27
2019-03-31T05:10:29.830Z,31.43
2019-03-31T05:15:41.036Z,30.93
2019-03-31T05:20:47.041Z,31.80
2019-03-31T05:25:53.509Z,36.83
2019-03-31T05:30:59.215Z,40.93
2019-03-31T05:36:04.973Z,40.20
2019-03-31T05:41:10.935Z,33.47
2019-03-31T05:46:17.615Z,34.50
2019-03-31T05:51:23.234Z,35.37
2019-03-31T05:56:30.724Z,37.73
2019-03-31T06:01:36.265Z,36.10
2019-03-31T06:06:41.837Z,37.60
2019-03-31T06:11:47.850Z,35.57
2019-03-31T06:16:53.448Z,38.00
2019-03-31T06:21:59.144Z,34.47
2019-03-31T06:27:04.801Z,36.77
2019-03-31T06:32:11.264Z,37.67
2019-03-31T06:37:17.256Z,40.80
2019-03-31T06:42:23.971Z,41.33
2019-03-31T06:47:29.585Z,45.27
2019-03-31T06:52:35.124Z,42.77
2019-03-31T06:57:41.022Z,47.73
2019-03-31T07:02:46.563Z,43.83
2019-03-31T07:07:52.097Z,43.47
2019-03-31T07:12:59.745Z,40.70
2019-03-31T07:18:05.160Z,42.97
2019-03-31T07:23:10.951Z,43.73
2019-03-31T07:28:16.885Z,46.33
2019-03-31T07:33:22.677Z,44.57
2019-03-31T07:38:38.731Z,47.03
2019-03-31T07:43:36.794Z,47.23
2019-03-31T07:48:42.767Z,50.07
2019-03-31T07:53:48.392Z,49.00
2019-03-31T07:58:54.002Z,47.23
2019-03-31T08:03:59.551Z,42.77
2019-03-31T08:09:08.000Z,44.07
2019-03-31T08:14:14.052Z,46.07
2019-03-31T08:19:22.358Z,43.70
2019-03-31T08:24:28.258Z,44.60
2019-03-31T08:29:33.893Z,45.17
2019-03-31T08:34:39.585Z,45.83
2019-03-31T08:39:45.168Z,46.97
2019-03-31T08:44:50.828Z,47.33
2019-03-31T08:49:56.775Z,46.17
2019-03-31T08:55:02.390Z,43.37
2019-03-31T09:00:11.696Z,46.27
2019-03-31T09:05:17.386Z,46.50
2019-03-31T09:10:24.189Z,45.37
2019-03-31T09:15:29.836Z,46.37
2019-03-31T09:20:35.408Z,47.20
2019-03-31T09:25:41.025Z,46.57
2019-03-31T09:30:48.629Z,46.43
2019-03-31T09:35:54.627Z,49.20
2019-03-31T09:41:00.287Z,49.17
2019-03-31T09:46:06.755Z,48.07
2019-03-31T09:51:12.379Z,50.40
2019-03-31T09:56:18.121Z,46.93
2019-03-31T10:01:23.844Z,44.37
2019-03-31T10:06:30.787Z,44.47
2019-03-31T10:11:38.142Z,43.40
2019-03-31T10:16:44.612Z,39.80
2019-03-31T10:21:50.678Z,42.37
2019-03-31T10:27:06.522Z,45.27
2019-03-31T10:32:12.037Z,41.53
2019-03-31T10:37:18.144Z,42.73
2019-03-31T10:42:23.838Z,40.20
2019-03-31T10:47:34.474Z,42.37
2019-03-31T10:52:41.029Z,41.03
2019-03-31T10:57:46.654Z,43.00
2019-03-31T11:02:52.202Z,39.20
2019-03-31T11:07:57.731Z,39.93
2019-03-31T11:13:03.330Z,45.30
2019-03-31T11:18:08.983Z,43.10
2019-03-31T11:23:32.568Z,43.17
2019-03-31T11:28:38.604Z,42.13
2019-03-31T11:33:44.283Z,39.67
2019-03-31T11:38:49.950Z,38.37
2019-03-31T11:43:55.657Z,37.43
2019-03-31T11:49:02.514Z,38.83
2019-03-31T11:54:08.299Z,38.10
2019-03-31T11:59:13.966Z,36.33
2019-03-31T12:04:19.604Z,35.63
2019-03-31T12:09:25.244Z,33.77
2019-03-31T12:14:31.063Z,30.87
2019-03-31T12:19:36.657Z,35.43
2019-03-31T12:24:42.426Z,33.60
2019-03-31T12:29:48.103Z,34.83
2019-03-31T12:34:54.949Z,32.63
2019-03-31T12:40:00.644Z,32.87
2019-03-31T12:45:06.485Z,29.60
2019-03-31T12:50:12.074Z,24.30
2019-03-31T12:55:18.866Z,24.90
2019-03-31T13:00:24.624Z,24.13
2019-03-31T13:05:30.952Z,22.63
2019-03-31T13:10:36.577Z,24.97
2019-03-31T13:15:42.345Z,23.53
2019-03-31T13:20:48.082Z,23.77
2019-03-31T13:25:53.690Z,24.70
2019-03-31T13:30:59.316Z,24.87
2019-03-31T13:36:05.136Z,25.17
2019-03-31T13:41:10.954Z,23.90
2019-03-31T13:46:16.930Z,24.10
2019-03-31T13:51:24.748Z,25.23
2019-03-31T13:56:31.490Z,24.90
2019-03-31T14:01:38.496Z,22.70
2019-03-31T14:07:08.159Z,23.40
2019-03-31T14:12:13.942Z,28.30
2019-03-31T14:17:24.473Z,29.03
2019-03-31T14:22:30.938Z,23.30
2019-03-31T14:27:37.769Z,24.07
2019-03-31T14:32:44.559Z,25.47
2019-03-31T14:37:50.741Z,22.80
2019-03-31T14:42:56.834Z,29.27
2019-03-31T14:48:06.486Z,23.63
2019-03-31T14:53:15.113Z,21.93
2019-03-31T14:58:21.487Z,21.20
2019-03-31T15:03:27.439Z,23.03
2019-03-31T15:08:33.333Z,23.17
2019-03-31T15:13:39.726Z,24.13
2019-03-31T15:18:45.371Z,26.23
2019-03-31T15:23:51.547Z,22.50
2019-03-31T15:28:57.273Z,18.43
2019-03-31T15:34:02.853Z,18.37
2019-03-31T15:39:09.506Z,18.10
2019-03-31T15:44:15.262Z,21.43
2019-03-31T15:49:20.870Z,22.97
2019-03-31T15:54:26.866Z,18.27
2019-03-31T15:59:39.221Z,18.40
2019-03-31T16:04:45.503Z,21.67
2019-03-31T16:09:51.673Z,20.10
2019-03-31T16:14:56.809Z,17.60
2019-03-31T16:20:07.544Z,16.90
2019-03-31T16:25:27.378Z,18.83
2019-03-31T16:30:33.790Z,17.53
2019-03-31T16:35:40.422Z,18.10
2019-03-31T16:40:46.856Z,17.57
2019-03-31T16:45:52.000Z,19.80
2019-03-31T16:51:00.262Z,17.93
2019-03-31T16:56:05.590Z,17.17
2019-03-31T17:01:13.641Z,19.23
2019-03-31T17:06:19.983Z,18.80
2019-03-31T17:11:28.974Z,18.17
2019-03-31T17:16:35.187Z,19.20
2019-03-31T17:21:40.897Z,18.97
2019-03-31T17:26:49.102Z,20.10
2019-03-31T17:31:54.227Z,20.83
2019-03-31T17:37:00.375Z,19.67
2019-03-31T17:42:05.475Z,17.63
2019-03-31T17:47:10.682Z,15.60
2019-03-31T17:52:15.852Z,17.27
2019-03-31T17:57:20.910Z,17.67
2019-03-31T18:02:26.063Z,19.17
2019-03-31T18:07:33.694Z,17.00
2019-03-31T18:12:39.826Z,18.33
2019-03-31T18:17:45.510Z,20.80
2019-03-31T18:22:56.338Z,18.03
2019-03-31T18:28:07.584Z,19.43
2019-03-31T18:33:13.277Z,20.93
2019-03-31T18:38:18.573Z,19.70
2019-03-31T18:43:25.554Z,18.70
2019-03-31T18:48:30.869Z,18.17
2019-03-31T18:53:41.704Z,20.07
2019-03-31T18:59:08.927Z,22.33
2019-03-31T19:04:38.972Z,23.37
2019-03-31T19:10:23.718Z,24.60
2019-03-31T19:15:35.567Z,24.37
2019-03-31T19:21:11.352Z,26.90
2019-03-31T19:26:48.106Z,29.80
2019-03-31T19:32:21.330Z,27.23
2019-03-31T19:37:51.342Z,25.97
2019-03-31T19:43:15.137Z,19.97
2019-03-31T19:48:43.499Z,16.80
2019-03-31T19:54:13.914Z,16.60
2019-03-31T19:59:36.809Z,18.43
2019-03-31T20:04:48.984Z,15.67
2019-03-31T20:10:04.779Z,17.20
2019-03-31T20:15:39.001Z,15.93
2019-03-31T20:20:56.589Z,15.60
2019-03-31T20:26:26.726Z,14.50
2019-03-31T20:31:54.010Z,17.50
2019-03-31T20:37:16.431Z,16.80
2019-03-31T20:42:43.170Z,15.70
2019-03-31T20:47:48.363Z,18.07
2019-03-31T20:52:53.588Z,16.23
2019-03-31T20:57:58.644Z,16.10
2019-03-31T21:03:04.827Z,15.43
2019-03-31T21:08:10.441Z,18.83
2019-03-31T21:13:15.715Z,16.50
2019-03-31T21:18:20.806Z,16.30
2019-03-31T21:23:25.876Z,19.67
2019-03-31T21:28:31.308Z,18.03
2019-03-31T21:33:36.666Z,22.30
2019-03-31T21:38:42.487Z,16.93
2019-03-31T21:43:47.788Z,16.60
2019-03-31T21:48:53.259Z,19.27
2019-03-31T21:53:58.402Z,18.30
2019-03-31T21:59:04.278Z,20.40
2019-03-31T22:04:09.303Z,19.20
2019-03-31T22:09:14.480Z,18.73
2019-03-31T22:14:19.577Z,15.50
2019-03-31T22:19:24.714Z,21.00
2019-03-31T22:24:29.720Z,19.80
2019-03-31T22:29:34.818Z,18.27
2019-03-31T22:34:39.836Z,20.93
2019-03-31T22:39:44.899Z,16.10
2019-03-31T22:44:50.212Z,15.60
2019-03-31T22:49:55.193Z,17.20
2019-03-31T22:55:00.355Z,17.40
2019-03-31T23:00:05.866Z,16.53
2019-03-31T23:05:12.492Z,16.60
2019-03-31T23:10:18.006Z,17.73
2019-03-31T23:15:23.032Z,19.57
2019-03-31T23:20:28.080Z,17.40
2019-03-31T23:25:33.269Z,16.43
2019-03-31T23:30:38.891Z,15.00
2019-03-31T23:35:44.220Z,18.57
2019-03-31T23:40:49.612Z,18.03
2019-03-31T23:45:54.674Z,19.80
2019-03-31T23:50:59.658Z,21.07
2019-03-31T23:56:04.730Z,18.43
